Center for Professional Development & Training
CPDT sessions are restricted to UNF faculty, staff and OPS employees, including student assistants.

Below are current open training sessions. Restricted or full sessions are not listed. Contact training@unf.edu for additional information.

Directions:
Register for classes by checking the appropriate box next to each class and selecting the Enrollment Form button.
For a description of the classes, check the appropriate box next to each class and select the Information button.
Current semester: Fall 2017
Start Date Start Time Stop Time Class Location Trainer Seats Taken /
Capacity
09-26-2017 9:00AM 4:00PM Excel 2013- Level I Beginner (PDT-309) 53/1400 Doug Leas 13 / 24
09-26-2017 9:00AM 11:00AM Crisis Management Training (CMT-100) 58W/2704 Catron, Gregory 44 / 75
09-27-2017 9:00AM 12:00PM University Domestic Travel Training (CON-106) 53/1400 Lee, Angela 8 / 24
09-27-2017 9:00AM 10:00AM Creating and Managing Online Surveys Level 2 (CIRT-102) 12/4301 Harden, Jessica 2 / 12
09-27-2017 1:30PM 3:30PM University International Travel Training (CON-206) 53/1400 Lee, Angela 7 / 24
09-28-2017 9:30AM 11:30AM OASys Position Management Workshop (HR-202) 12/4301 Michael Fritts 4 / 12
09-28-2017 10:00AM 11:00AM Travel & Expense Training for Travelers and Approvers (CON-104) 53/1400 Lee, Angela 2 / 24
09-28-2017 1:00PM 3:00PM OASys Applicant Tracking Workshop (HR-203) 12/4301 Levine, Stefanie 4 / 12
09-28-2017 1:30PM 4:30PM Travel and Expense Training for Delegates (CON-107) 53/1400 Lee, Angela 6 / 24
09-29-2017 1:30PM 4:30PM Direct Pay & Elec. Invoice Approval (CON-102) 53/1400 Lee, Angela 6 / 24
10-02-2017 1:30PM 3:30PM Finance Self Service (BGT-100) 12/4301 Campbell, Erin 5 / 12
10-04-2017 9:00AM 11:00AM CMS Training: Beginner (ITS-118) 53/1400 Thompson, Katherine 1 / 15
10-05-2017 9:00AM 11:00AM CMS Workshop (ITS-121) 53/1400 Thompson, Katherine 1 / 15
10-06-2017 9:30AM 11:00AM Debunked: FMLA, Workers Comp and the ADA (HR-155) 53/1430 Neidhardt, Jennifer 1 / 30
10-10-2017 1:30PM 4:30PM PCard Banner Training (PUR-110) 12/4301 Durden, Denise 3 / 12
10-10-2017 2:00PM 4:00PM iContracts (CON-108) 53/1400 Lee, Angela 4 / 24
10-11-2017 10:00AM 11:30AM HR Policies and Procedures (HR-150) 1/1306 Catron, Gregory 5 / 15
10-11-2017 2:00PM 3:30PM Quillix Capture 5 (ITS-131) 53/1400 Lee, Angela 4 / 24
10-11-2017 3:30PM 4:30PM OnBase Web Client Training (ITS-113) 53/1400 Lee, Angela 6 / 24
10-12-2017 9:00AM 12:00PM Introduction to Supervision (PDT-583) 53/1420 Ridge, Susan 14 / 25
10-12-2017 10:00AM 11:00AM Qualtrics Reporting Tools (CIRT-103) 12/4301 Wilson, David W. 2 / 12
10-12-2017 2:00PM 4:00PM Originating an ePAF (HR-126) 12/4301 Levine, Stefanie 6 / 12
10-13-2017 2:00PM 4:00PM Accepting Credit Card Payments: Payment Card Industry Data Security Standards Compliance (PCI DSS) (PUR-113) 53/1400 Lee, Angela 2 / 24
10-17-2017 2:00PM 4:00PM Creating a Requisition (PUR-104) 53/1400 Asmuth, Shawn 4 / 24
10-18-2017 9:00AM 11:00AM CMS Training: Beginner (ITS-118) 53/1400 Thompson, Katherine 1 / 15
10-18-2017 9:30AM 12:30PM OASys Applicant Tracking Workshop (HR-203) 12/4301 Jackson, Ricarla 3 / 12
10-19-2017 9:00AM 11:00AM CMS Web Design Basics (ITS-126) 53/1400 Thompson, Katherine 3 / 15
10-24-2017 9:00AM 4:00PM Excel 2013- Level 2 Intermediate (PDT-311) 53/1400 Doug Leas 19 / 24
10-25-2017 9:00AM 12:30PM Safe Space: Cultural Competency in LGBTQ Identities (SA-133) 58E/2100 SACR Kaitlin Legg 10 / 15
10-26-2017 9:00AM 10:00AM Balancing Work/Family/Life (PDT-701) 1/1306 Health Advocate (CCW) 9 / 12
10-27-2017 9:00AM 11:00AM From Pulps to Present Day: Diversity Lessons in Comics (PDT-700) 1/1306 Harrison, Kelly 2 / 12
10-31-2017 2:30PM 4:00PM Awarding Scholarships for Student Travel (AA-100) 1/1306 Lee, Angela 0 / 15
11-01-2017 9:00AM 11:00AM CMS Training: Beginner (ITS-118) 53/1400 Thompson, Katherine 0 / 15
11-01-2017 1:30PM 3:30PM Finance Self Service (BGT-100) 53/1400 Campbell, Erin 0 / 24
11-02-2017 9:00AM 11:00AM CMS Workshop (ITS-121) 53/1400 Thompson, Katherine 0 / 15
11-08-2017 9:00AM 11:00AM Delegation and Accountability (PDT-200) 53/1420 Graf, Isabel 14 / 25
11-09-2017 1:30PM 4:30PM PCard Banner Training (PUR-110) 53/1400 Durden, Denise 0 / 24
11-14-2017 2:00PM 3:00PM Faculty Activity Reporting Workshop (AA-106) 12/4301 Jarsocrak, Hanna 0 / 12
11-15-2017 9:00AM 11:00AM CMS Training: Beginner (ITS-118) 53/1400 Thompson, Katherine 0 / 15
11-15-2017 10:00AM 11:30AM Management Matters (HR-112) 1/1306 Catron, Gregory 6 / 15
11-15-2017 12:00PM 1:00PM Healthy Holiday Eating (SA-217) 58E/2100 SACR Schooley, Kelly 5 / 15
11-15-2017 1:00PM 4:30PM OASys Applicant Tracking (HR-201) 53/1400 Jackson, Ricarla 1 / 24
11-16-2017 9:00AM 11:00AM CMS Web Design Basics (ITS-126) 53/1400 Thompson, Katherine 1 / 15
11-16-2017 10:00AM 11:00AM Faculty Activity Reporting Workshop (AA-106) 12/4301 Jarsocrak, Hanna 2 / 12
11-16-2017 2:00PM 3:00PM Information for UNF Search and Screen Committee Members (EOD-121) TBD Gonzalez, Cheryl 5 / 15
11-16-2017 2:30PM 4:30PM Originating an ePAF (HR-126) 53/1400 Levine, Stefanie 2 / 24
11-17-2017 9:00AM 12:30PM Safe Space: Cultural Competency in LGBTQ Identities (SA-133) 58E/2100 SACR Kaitlin Legg 3 / 15
12-05-2017 9:00AM 11:00AM Finance Self Service (BGT-100) 12/4301 Campbell, Erin 0 / 12
12-06-2017 9:00AM 11:00AM Creating a Requisition (PUR-104) 53/1400 Asmuth, Shawn 0 / 24
12-13-2017 9:00AM 11:00AM CMS Training: Beginner (ITS-118) 53/1400 Thompson, Katherine 0 / 15
12-13-2017 9:30AM 11:30AM Cultural Competency 101 (SA-121) 58E/2100 SACR Kaitlin Legg 7 / 15
12-14-2017 9:00AM 11:00AM CMS Workshop (ITS-121) 53/1400 Thompson, Katherine 0 / 15